createdAt,value
2023-03-13T01:21:50.955Z,11.19
2023-03-13T01:27:03.390Z,10.40
2023-03-13T01:32:16.213Z,10.53
2023-03-13T01:37:25.810Z,10.58
2023-03-13T01:42:31.023Z,10.97
2023-03-13T01:47:38.059Z,10.88
2023-03-13T01:52:52.547Z,10.82
2023-03-13T01:58:03.485Z,10.29
2023-03-13T02:08:51.180Z,10.42
2023-03-13T02:13:56.116Z,10.67
2023-03-13T02:18:59.125Z,10.70
2023-03-13T02:24:14.159Z,10.98
2023-03-13T02:29:19.503Z,11.01
2023-03-13T02:34:27.206Z,10.72
2023-03-13T02:39:32.622Z,11.18
2023-03-13T02:44:42.183Z,10.81
2023-03-13T02:49:45.772Z,10.40
2023-03-13T02:54:52.638Z,11.23
2023-03-13T02:59:59.556Z,11.30
2023-03-13T03:05:03.309Z,10.83
2023-03-13T03:10:07.822Z,10.78
2023-03-13T03:15:16.137Z,11.13
2023-03-13T03:20:21.743Z,11.50
2023-03-13T03:25:25.848Z,10.94
2023-03-13T03:30:30.846Z,11.59
2023-03-13T03:35:38.334Z,11.72
2023-03-13T03:40:41.835Z,11.61
2023-03-13T03:45:46.125Z,11.47
2023-03-13T03:50:49.582Z,10.71
2023-03-13T03:55:53.427Z,11.70
2023-03-13T04:00:59.715Z,11.79
2023-03-13T04:06:03.662Z,11.48
2023-03-13T04:11:06.544Z,11.87
2023-03-13T04:16:15.013Z,11.28
2023-03-13T04:21:19.105Z,11.87
2023-03-13T04:26:29.413Z,11.68
2023-03-13T04:31:36.195Z,12.01
2023-03-13T04:36:57.043Z,11.97
2023-03-13T04:42:18.801Z,12.07
2023-03-13T04:47:41.191Z,12.13
2023-03-13T04:53:03.174Z,12.07
2023-03-13T04:58:19.105Z,12.21
2023-03-13T05:03:44.185Z,12.30
2023-03-13T05:09:07.586Z,12.19
2023-03-13T05:14:32.645Z,12.28
2023-03-13T05:20:05.142Z,12.40
2023-03-13T05:25:23.525Z,12.39
2023-03-13T05:30:27.183Z,12.29
2023-03-13T05:35:46.989Z,12.48
2023-03-13T05:41:24.893Z,12.33
2023-03-13T05:46:46.065Z,12.63
2023-03-13T05:52:09.212Z,12.67
2023-03-13T05:57:22.129Z,12.63
2023-03-13T06:02:48.287Z,12.43
2023-03-13T06:07:58.668Z,12.50
2023-03-13T06:13:17.250Z,12.96
2023-03-13T06:18:27.516Z,12.50
2023-03-13T06:23:35.173Z,12.53
2023-03-13T06:28:42.138Z,13.05
2023-03-13T06:33:45.227Z,12.87
2023-03-13T06:38:49.638Z,13.18
2023-03-13T06:43:53.159Z,12.53
2023-03-13T06:48:55.847Z,13.10
2023-03-13T06:54:00.184Z,13.32
2023-03-13T06:59:03.451Z,13.07
2023-03-13T07:04:06.321Z,12.95
2023-03-13T07:09:22.166Z,13.49
2023-03-13T07:14:26.092Z,12.63
2023-03-13T07:19:29.155Z,13.07
2023-03-13T07:24:33.598Z,13.06
2023-03-13T07:29:36.400Z,12.34
2023-03-13T07:34:44.630Z,12.92
2023-03-13T07:39:49.649Z,13.45
2023-03-13T07:44:55.708Z,11.15
2023-03-13T07:50:02.940Z,13.58
2023-03-13T07:55:10.140Z,13.59
2023-03-13T08:00:20.829Z,13.70
2023-03-13T08:05:24.553Z,13.69
2023-03-13T08:10:30.049Z,12.66
2023-03-13T08:15:34.796Z,13.13
2023-03-13T08:20:37.568Z,13.89
2023-03-13T08:25:43.685Z,13.96
2023-03-13T08:30:46.492Z,14.01
2023-03-13T08:35:49.252Z,13.56
2023-03-13T08:40:57.722Z,13.94
2023-03-13T08:46:36.989Z,13.21
2023-03-13T08:51:52.739Z,14.26
2023-03-13T08:56:59.871Z,14.12
2023-03-13T09:02:03.628Z,14.42
2023-03-13T09:07:08.053Z,12.59
2023-03-13T09:12:41.241Z,13.26
2023-03-13T09:18:06.821Z,14.72
2023-03-13T09:23:11.645Z,14.82
2023-03-13T09:28:27.645Z,13.28
2023-03-13T09:34:29.832Z,14.62
2023-03-13T09:39:39.797Z,15.10
2023-03-13T09:45:22.198Z,14.67
2023-03-13T10:05:26.791Z,12.84
2023-03-13T10:30:32.927Z,15.75
2023-03-13T10:35:37.383Z,16.03
2023-03-13T10:40:40.316Z,15.85
2023-03-13T10:45:44.205Z,16.04
2023-03-13T10:50:49.010Z,16.11
2023-03-13T10:55:55.892Z,16.09
2023-03-13T11:01:17.073Z,16.07
2023-03-13T11:06:27.047Z,16.14
2023-03-13T11:11:31.021Z,16.22
2023-03-13T11:16:43.480Z,16.31
2023-03-13T11:21:58.179Z,16.40
2023-03-13T11:27:11.445Z,16.45
2023-03-13T11:32:23.825Z,16.38
2023-03-13T11:37:29.772Z,16.29
2023-03-13T11:42:46.096Z,16.56
2023-03-13T11:48:00.040Z,16.49
2023-03-13T11:53:17.961Z,16.36
2023-03-13T11:58:43.043Z,16.65
2023-03-13T12:03:59.509Z,16.66
2023-03-13T12:09:10.506Z,16.69
2023-03-13T12:14:18.024Z,16.54
2023-03-13T12:19:30.612Z,16.69
2023-03-13T12:24:38.711Z,16.76
2023-03-13T12:29:49.751Z,16.76
2023-03-13T12:35:01.655Z,16.68
2023-03-13T12:40:17.265Z,16.76
2023-03-13T12:45:24.184Z,16.77
2023-03-13T12:50:41.569Z,16.86
2023-03-13T12:56:04.210Z,16.94
2023-03-13T13:01:08.686Z,17.10
2023-03-13T13:06:14.772Z,17.02
2023-03-13T13:11:41.733Z,16.91
2023-03-13T13:16:46.128Z,16.88
2023-03-13T13:22:28.764Z,17.16
2023-03-13T13:27:47.398Z,17.15
2023-03-13T13:32:51.147Z,17.03
2023-03-13T13:38:36.473Z,17.08
2023-03-13T13:43:40.440Z,16.95
2023-03-13T13:48:43.176Z,16.84
2023-03-13T13:53:50.409Z,16.72
2023-03-13T13:58:58.143Z,16.87
2023-03-13T14:04:12.408Z,16.90
2023-03-13T14:09:29.288Z,16.88
2023-03-13T14:14:31.858Z,16.83
2023-03-13T14:19:39.768Z,16.76
2023-03-13T14:24:58.065Z,16.73
2023-03-13T14:30:01.454Z,16.52
2023-03-13T14:35:06.042Z,16.72
2023-03-13T14:40:19.900Z,16.74
2023-03-13T14:45:28.667Z,16.92
2023-03-13T14:50:31.300Z,17.19
2023-03-13T14:55:40.341Z,17.22
2023-03-13T15:00:44.816Z,17.04
2023-03-13T15:05:49.939Z,16.87
2023-03-13T15:10:54.029Z,16.87
2023-03-13T15:15:56.650Z,16.88
2023-03-13T15:21:01.001Z,16.79
2023-03-13T15:26:05.644Z,16.65
2023-03-13T15:31:12.850Z,16.98
2023-03-13T15:36:15.423Z,17.13
2023-03-13T15:41:19.622Z,16.98
2023-03-13T15:46:22.737Z,16.66
2023-03-13T15:51:27.612Z,16.88
2023-03-13T15:56:36.094Z,16.76
2023-03-13T16:01:38.849Z,16.71
2023-03-13T16:06:41.465Z,16.14
2023-03-13T16:11:46.033Z,16.56
2023-03-13T16:16:49.778Z,16.53
2023-03-13T16:21:52.590Z,16.48
2023-03-13T16:26:56.453Z,16.45
2023-03-13T16:31:59.052Z,16.33
2023-03-13T16:37:01.626Z,16.30
2023-03-13T16:42:05.795Z,16.19
2023-03-13T16:47:21.876Z,15.99
2023-03-13T16:52:24.830Z,16.02
2023-03-13T16:57:28.846Z,15.93
2023-03-13T17:02:31.439Z,15.86
2023-03-13T17:07:34.146Z,15.77
2023-03-13T17:12:38.068Z,15.70
2023-03-13T17:17:41.892Z,15.69
2023-03-13T17:22:45.421Z,15.68
2023-03-13T17:27:49.387Z,15.62
2023-03-13T17:32:52.621Z,15.54
2023-03-13T17:37:55.289Z,15.50
2023-03-13T17:42:59.488Z,15.48
2023-03-13T17:48:02.213Z,15.43
2023-03-13T17:53:04.761Z,15.43
2023-03-13T17:58:09.970Z,15.42
2023-03-13T18:03:12.592Z,15.35
2023-03-13T18:08:15.550Z,15.38
2023-03-13T18:13:19.893Z,15.30
2023-03-13T18:18:22.539Z,15.28
2023-03-13T18:23:25.821Z,15.26
2023-03-13T18:28:29.745Z,13.84
2023-03-13T18:33:32.276Z,14.88
2023-03-13T18:38:35.215Z,15.12
2023-03-13T18:43:39.338Z,14.99
2023-03-13T18:48:42.095Z,15.07
2023-03-13T18:53:45.980Z,14.76
2023-03-13T18:58:52.326Z,14.98
2023-03-13T19:03:54.934Z,14.96
2023-03-13T19:08:59.702Z,14.95
2023-03-13T19:14:03.619Z,14.88
2023-03-13T19:19:12.911Z,14.85
2023-03-13T19:24:15.956Z,14.75
2023-03-13T19:29:21.370Z,14.69
2023-03-13T19:34:23.949Z,14.66
2023-03-13T19:39:27.087Z,14.66
2023-03-13T19:44:31.024Z,14.62
2023-03-13T19:49:35.027Z,14.57
2023-03-13T19:54:37.866Z,14.77
2023-03-13T19:59:41.790Z,15.02
2023-03-13T20:04:45.741Z,14.79
2023-03-13T20:09:48.587Z,14.69
2023-03-13T20:14:52.558Z,14.56
2023-03-13T20:19:55.151Z,14.45
2023-03-13T20:24:57.779Z,14.38
2023-03-13T20:30:02.194Z,14.25
2023-03-13T20:35:10.201Z,14.24
2023-03-13T20:40:13.891Z,14.23
2023-03-13T20:45:18.412Z,14.12
2023-03-13T20:50:21.012Z,13.99
2023-03-13T20:55:23.860Z,13.93
2023-03-13T21:00:27.917Z,13.95
2023-03-13T21:05:30.533Z,13.89
2023-03-13T21:10:35.690Z,13.65
2023-03-13T21:15:40.394Z,13.72
2023-03-13T21:20:43.071Z,13.74
2023-03-13T21:25:45.619Z,13.68
2023-03-13T21:30:49.525Z,13.63
2023-03-13T21:35:52.496Z,13.66
2023-03-13T21:40:55.704Z,13.61
2023-03-13T21:45:59.976Z,13.21
2023-03-13T21:51:02.965Z,12.87
2023-03-13T21:56:06.428Z,13.41
2023-03-13T22:01:11.443Z,13.29
2023-03-13T22:06:15.423Z,13.29
2023-03-13T22:11:18.471Z,13.25
2023-03-13T22:16:25.207Z,13.30
2023-03-13T22:21:27.797Z,13.25
2023-03-13T22:26:30.419Z,13.24
2023-03-13T22:31:34.607Z,13.21
2023-03-13T22:36:37.951Z,13.12
2023-03-13T22:41:40.851Z,12.84
2023-03-13T22:46:44.911Z,13.07
2023-03-13T22:51:47.699Z,13.08
2023-03-13T22:56:50.778Z,13.03
2023-03-13T23:01:54.929Z,12.91
2023-03-13T23:06:57.568Z,12.67
2023-03-13T23:12:00.129Z,12.91
2023-03-13T23:17:04.052Z,12.96
2023-03-13T23:22:06.667Z,12.89
2023-03-13T23:27:09.302Z,12.86
2023-03-13T23:32:13.218Z,12.86
2023-03-13T23:37:15.820Z,12.86
2023-03-13T23:42:18.379Z,12.90
2023-03-13T23:47:22.300Z,12.92
2023-03-13T23:52:24.955Z,12.92
2023-03-13T23:57:27.526Z,12.87
